createdAt,value
2022-10-05T00:01:17.482Z,8.90
2022-10-05T00:03:44.040Z,8.80
2022-10-05T00:06:11.490Z,8.80
2022-10-05T00:08:38.190Z,8.80
2022-10-05T00:11:07.988Z,8.90
2022-10-05T00:13:34.557Z,8.80
2022-10-05T00:16:10.367Z,8.80
2022-10-05T00:18:37.297Z,8.80
2022-10-05T00:21:09.267Z,8.80
2022-10-05T00:23:35.820Z,8.80
2022-10-05T00:26:06.336Z,8.80
2022-10-05T00:28:32.875Z,8.80
2022-10-05T00:30:59.895Z,8.80
2022-10-05T00:33:27.390Z,8.80
2022-10-05T00:35:54.545Z,8.80
2022-10-05T00:38:21.185Z,8.80
2022-10-05T00:41:04.653Z,8.80
2022-10-05T00:43:31.153Z,8.80
2022-10-05T00:46:07.666Z,8.80
2022-10-05T00:48:49.652Z,8.80
2022-10-05T00:51:18.952Z,8.80
2022-10-05T00:53:48.569Z,8.80
2022-10-05T00:56:24.265Z,8.80
2022-10-05T00:59:09.252Z,8.80
2022-10-05T01:01:35.822Z,8.80
2022-10-05T01:04:16.470Z,8.70
2022-10-05T01:06:43.109Z,8.70
2022-10-05T01:09:18.880Z,8.70
2022-10-05T01:12:09.289Z,8.70
2022-10-05T01:14:43.144Z,8.70
2022-10-05T01:17:29.929Z,8.70
2022-10-05T01:20:29.110Z,8.70
2022-10-05T01:22:55.603Z,8.60
2022-10-05T01:25:31.045Z,8.60
2022-10-05T01:28:00.664Z,8.60
2022-10-05T01:30:30.304Z,8.50
2022-10-05T01:33:17.113Z,8.50
2022-10-05T01:35:46.663Z,8.50
2022-10-05T01:38:13.195Z,8.40
2022-10-05T01:40:47.675Z,8.40
2022-10-05T01:43:20.355Z,8.50
2022-10-05T01:45:56.597Z,8.50
2022-10-05T01:48:43.607Z,8.50
2022-10-05T01:51:19.067Z,8.50
2022-10-05T01:53:53.107Z,8.50
2022-10-05T01:56:24.723Z,8.50
2022-10-05T01:59:00.202Z,8.40
2022-10-05T02:01:38.725Z,8.40
2022-10-05T02:04:05.270Z,8.40
2022-10-05T02:06:35.037Z,8.50
2022-10-05T02:09:12.882Z,8.40
2022-10-05T02:11:40.875Z,8.40
2022-10-05T02:14:09.942Z,8.40
2022-10-05T02:16:39.226Z,8.50
2022-10-05T02:19:05.725Z,8.40
2022-10-05T02:21:33.566Z,8.40
2022-10-05T02:24:02.489Z,8.40
2022-10-05T02:26:31.198Z,8.30
2022-10-05T02:28:59.909Z,8.40
2022-10-05T02:31:29.925Z,8.30
2022-10-05T02:34:15.580Z,8.30
2022-10-05T02:36:42.468Z,8.20
2022-10-05T02:39:15.441Z,8.20
2022-10-05T02:41:45.910Z,8.20
2022-10-05T02:44:15.496Z,8.20
2022-10-05T02:46:47.323Z,8.30
2022-10-05T02:49:19.604Z,8.30
2022-10-05T02:51:46.119Z,8.30
2022-10-05T02:54:25.359Z,8.30
2022-10-05T02:57:03.479Z,8.30
2022-10-05T02:59:34.484Z,8.30
2022-10-05T03:02:08.804Z,8.00
2022-10-05T03:04:50.935Z,8.30
2022-10-05T03:07:20.586Z,8.30
2022-10-05T03:10:13.379Z,8.20
2022-10-05T03:12:44.693Z,8.20
2022-10-05T03:15:24.342Z,8.10
2022-10-05T03:18:06.645Z,8.10
2022-10-05T03:20:42.604Z,8.10
2022-10-05T03:23:19.211Z,8.00
2022-10-05T03:26:06.012Z,7.90
2022-10-05T03:28:44.963Z,7.90
2022-10-05T03:31:14.600Z,7.90
2022-10-05T03:33:47.892Z,7.80
2022-10-05T03:36:17.521Z,7.80
2022-10-05T03:38:57.767Z,7.70
2022-10-05T03:41:27.465Z,7.60
2022-10-05T03:44:13.392Z,7.60
2022-10-05T03:46:46.357Z,7.60
2022-10-05T03:49:17.009Z,7.50
2022-10-05T03:51:46.782Z,7.50
2022-10-05T03:54:31.929Z,7.50
2022-10-05T03:57:01.855Z,7.50
2022-10-05T03:59:38.302Z,7.40
2022-10-05T04:02:06.396Z,7.50
2022-10-05T04:04:36.227Z,7.50
2022-10-05T04:07:03.334Z,7.50
2022-10-05T04:09:32.382Z,7.50
2022-10-05T04:12:09.737Z,7.60
2022-10-05T04:14:38.231Z,7.60
2022-10-05T04:17:08.616Z,7.60
2022-10-05T04:19:46.189Z,7.60
2022-10-05T04:22:17.434Z,7.70
2022-10-05T04:24:54.910Z,7.70
2022-10-05T04:27:23.506Z,7.70
2022-10-05T04:30:02.123Z,7.70
2022-10-05T04:32:45.278Z,7.80
2022-10-05T04:35:30.704Z,7.80
2022-10-05T04:38:00.538Z,7.80
2022-10-05T04:40:45.796Z,7.90
2022-10-05T04:43:30.290Z,7.90
2022-10-05T04:46:15.487Z,7.90
2022-10-05T04:48:46.828Z,7.90
2022-10-05T04:51:22.298Z,7.90
2022-10-05T04:53:58.653Z,7.90
2022-10-05T04:56:28.144Z,7.70
2022-10-05T04:58:57.630Z,7.80
2022-10-05T05:01:24.268Z,7.70
2022-10-05T05:04:17.118Z,7.70
2022-10-05T05:06:48.993Z,7.60
2022-10-05T05:09:29.065Z,7.60
2022-10-05T05:12:01.763Z,7.60
2022-10-05T05:14:34.981Z,7.50
2022-10-05T05:17:04.543Z,7.50
2022-10-05T05:19:35.092Z,7.50
2022-10-05T05:22:16.580Z,7.50
2022-10-05T05:25:00.174Z,7.50
2022-10-05T05:27:41.765Z,7.50
2022-10-05T05:30:17.336Z,7.50
2022-10-05T05:32:43.825Z,7.40
2022-10-05T05:35:17.589Z,7.50
2022-10-05T05:37:53.364Z,7.50
2022-10-05T05:40:43.200Z,7.60
2022-10-05T05:43:20.730Z,7.60
2022-10-05T05:45:52.446Z,7.70
2022-10-05T05:48:22.992Z,7.70
2022-10-05T05:50:54.929Z,7.90
2022-10-05T05:53:25.173Z,8.10
2022-10-05T05:55:53.670Z,8.30
2022-10-05T05:58:24.451Z,8.50
2022-10-05T06:00:54.985Z,8.70
2022-10-05T06:03:29.922Z,8.90
2022-10-05T06:05:59.649Z,9.10
2022-10-05T06:08:34.683Z,9.30
2022-10-05T06:11:04.000Z,9.50
2022-10-05T06:13:33.270Z,9.70
2022-10-05T06:16:09.352Z,9.80
2022-10-05T06:18:37.983Z,10.10
2022-10-05T06:21:22.767Z,10.20
2022-10-05T06:23:49.267Z,10.20
2022-10-05T06:26:21.693Z,10.20
2022-10-05T06:29:01.862Z,10.20
2022-10-05T06:31:29.550Z,10.40
2022-10-05T06:34:22.269Z,10.20
2022-10-05T06:36:50.770Z,10.40
2022-10-05T06:39:26.498Z,10.70
2022-10-05T06:42:13.612Z,10.90
2022-10-05T06:45:01.884Z,11.20
2022-10-05T06:47:33.805Z,11.50
2022-10-05T06:50:00.285Z,11.80
2022-10-05T06:52:29.793Z,12.30
2022-10-05T06:55:03.322Z,12.50
2022-10-05T06:57:48.200Z,12.70
2022-10-05T07:00:22.207Z,13.00
2022-10-05T07:02:48.726Z,13.50
2022-10-05T07:05:18.303Z,13.90
2022-10-05T07:07:44.805Z,13.80
2022-10-05T07:10:11.323Z,14.00
2022-10-05T07:12:53.162Z,14.30
2022-10-05T07:15:19.612Z,14.60
2022-10-05T07:18:04.985Z,14.90
2022-10-05T07:20:49.253Z,15.00
2022-10-05T07:23:25.428Z,15.20
2022-10-05T07:26:00.753Z,15.10
2022-10-05T07:28:30.553Z,15.30
2022-10-05T07:31:00.484Z,15.70
2022-10-05T07:33:27.036Z,16.00
2022-10-05T07:36:12.513Z,16.10
2022-10-05T07:38:42.957Z,16.40
2022-10-05T07:41:23.755Z,16.50
2022-10-05T07:44:12.530Z,16.70
2022-10-05T07:46:40.032Z,17.20
2022-10-05T07:49:17.375Z,18.10
2022-10-05T07:52:00.242Z,18.60
2022-10-05T07:54:45.604Z,19.00
2022-10-05T07:57:20.917Z,19.70
2022-10-05T07:59:50.319Z,20.20
2022-10-05T08:02:25.963Z,20.80
2022-10-05T08:05:02.609Z,21.00
2022-10-05T08:07:30.947Z,20.90
2022-10-05T08:10:16.438Z,20.80
2022-10-05T08:12:55.336Z,20.80
2022-10-05T08:15:24.726Z,21.10
2022-10-05T08:18:02.447Z,21.30
2022-10-05T08:20:40.130Z,21.60
2022-10-05T08:23:20.875Z,21.60
2022-10-05T08:25:53.514Z,21.90
2022-10-05T08:28:25.474Z,22.10
2022-10-05T08:31:03.760Z,22.50
2022-10-05T08:33:35.778Z,22.50
2022-10-05T08:36:05.844Z,22.40
2022-10-05T08:38:33.657Z,22.50
2022-10-05T08:41:15.065Z,23.30
2022-10-05T08:44:03.596Z,23.90
2022-10-05T08:46:39.300Z,24.50
2022-10-05T08:49:11.904Z,25.30
2022-10-05T08:51:47.834Z,25.60
2022-10-05T08:54:14.638Z,26.00
2022-10-05T08:56:53.670Z,26.40
2022-10-05T08:59:23.311Z,26.10
2022-10-05T09:01:58.384Z,26.50
2022-10-05T09:04:34.210Z,26.20
2022-10-05T09:07:07.386Z,25.90
2022-10-05T09:09:52.818Z,26.20
2022-10-05T09:12:38.178Z,26.70
2022-10-05T09:15:26.018Z,26.60
2022-10-05T09:18:11.273Z,26.80
2022-10-05T09:20:54.241Z,27.10
2022-10-05T09:23:35.921Z,27.40
2022-10-05T09:26:21.059Z,27.30
2022-10-05T09:29:03.044Z,27.50
2022-10-05T09:31:38.346Z,27.80
2022-10-05T09:34:23.779Z,28.60
2022-10-05T09:36:50.344Z,28.20
2022-10-05T09:39:31.166Z,28.10
2022-10-05T09:42:14.088Z,28.00
2022-10-05T09:44:58.338Z,28.30
2022-10-05T09:47:33.703Z,28.60
2022-10-05T09:50:00.194Z,28.90
2022-10-05T09:52:26.669Z,29.40
2022-10-05T09:55:08.841Z,29.80
2022-10-05T09:57:35.342Z,29.90
2022-10-05T10:00:14.010Z,30.30
2022-10-05T10:02:59.697Z,30.20
2022-10-05T10:05:45.269Z,30.20
2022-10-05T10:08:30.341Z,29.90
2022-10-05T10:11:04.834Z,30.10
2022-10-05T10:13:55.661Z,29.70
2022-10-05T10:16:29.843Z,29.60
2022-10-05T10:19:08.628Z,30.20
2022-10-05T10:21:53.988Z,29.90
2022-10-05T10:24:39.490Z,29.30
2022-10-05T10:27:32.180Z,29.40
2022-10-05T10:29:58.680Z,29.20
2022-10-05T10:32:43.712Z,29.30
2022-10-05T10:35:18.832Z,29.10
2022-10-05T10:38:04.294Z,29.40
2022-10-05T10:40:30.967Z,29.30
2022-10-05T10:43:10.972Z,29.30
2022-10-05T10:45:42.900Z,28.60
2022-10-05T10:48:32.439Z,28.30
2022-10-05T10:51:05.624Z,28.80
2022-10-05T10:54:03.905Z,29.50
2022-10-05T10:56:54.095Z,29.90
2022-10-05T10:59:20.607Z,29.90
2022-10-05T11:01:59.614Z,30.20
2022-10-05T11:04:38.394Z,30.30
2022-10-05T11:07:17.191Z,30.40
2022-10-05T11:09:49.735Z,30.50
2022-10-05T11:12:34.579Z,30.00
2022-10-05T11:15:20.431Z,29.90
2022-10-05T11:17:50.289Z,29.70
2022-10-05T11:20:25.179Z,29.60
2022-10-05T11:22:54.765Z,29.50
2022-10-05T11:25:21.295Z,29.50
2022-10-05T11:27:55.950Z,29.60
2022-10-05T11:30:32.729Z,29.50
2022-10-05T11:33:06.197Z,29.40
2022-10-05T11:35:51.275Z,29.50
2022-10-05T11:38:36.796Z,29.40
2022-10-05T11:41:22.493Z,29.70
2022-10-05T11:44:07.430Z,30.10
2022-10-05T11:46:43.329Z,30.20
2022-10-05T11:49:28.227Z,30.60
2022-10-05T11:52:00.291Z,30.20
2022-10-05T11:55:09.421Z,30.00
2022-10-05T11:57:58.255Z,30.40
2022-10-05T12:00:30.512Z,30.20
2022-10-05T12:02:57.097Z,30.10
2022-10-05T12:05:32.732Z,30.10
2022-10-05T12:08:08.346Z,30.00
2022-10-05T12:10:37.982Z,29.90
2022-10-05T12:13:23.449Z,30.00
2022-10-05T12:15:52.808Z,30.50
2022-10-05T12:18:31.689Z,30.60
2022-10-05T12:21:01.337Z,30.30
2022-10-05T12:23:30.778Z,30.10
2022-10-05T12:26:14.815Z,29.70
2022-10-05T12:28:44.909Z,29.60
2022-10-05T12:31:11.477Z,29.90
2022-10-05T12:33:45.435Z,29.80
2022-10-05T12:36:14.482Z,29.70
2022-10-05T12:38:48.266Z,29.30
2022-10-05T12:41:14.740Z,29.30
2022-10-05T12:43:55.010Z,28.90
2022-10-05T12:46:33.410Z,28.80
2022-10-05T12:49:21.806Z,28.70
2022-10-05T12:51:58.652Z,28.40
2022-10-05T12:54:34.360Z,28.40
2022-10-05T12:57:00.878Z,28.40
2022-10-05T12:59:27.371Z,28.00
2022-10-05T13:01:57.443Z,28.10
2022-10-05T13:04:29.963Z,28.10
2022-10-05T13:07:05.472Z,28.20
2022-10-05T13:09:42.145Z,28.20
2022-10-05T13:12:28.398Z,28.00
2022-10-05T13:15:13.798Z,27.90
2022-10-05T13:17:49.883Z,27.70
2022-10-05T13:20:27.918Z,27.60
2022-10-05T13:23:01.885Z,27.40
2022-10-05T13:25:28.546Z,27.20
2022-10-05T13:28:19.524Z,27.30
2022-10-05T13:30:59.241Z,27.20
2022-10-05T13:33:38.184Z,27.00
2022-10-05T13:36:09.330Z,27.00
2022-10-05T13:38:42.021Z,26.90
2022-10-05T13:41:16.488Z,27.10
2022-10-05T13:43:58.342Z,27.00
2022-10-05T13:46:28.487Z,27.00
2022-10-05T13:48:55.071Z,27.00
2022-10-05T13:51:23.016Z,26.80
2022-10-05T13:53:58.554Z,26.80
2022-10-05T13:56:28.778Z,26.70
2022-10-05T13:58:58.078Z,26.80
2022-10-05T14:01:48.724Z,26.70
2022-10-05T14:04:20.968Z,26.70
2022-10-05T14:06:48.439Z,26.90
2022-10-05T14:09:21.949Z,26.90
2022-10-05T14:12:17.765Z,26.80
2022-10-05T14:14:49.154Z,26.90
2022-10-05T14:17:17.386Z,27.00
2022-10-05T14:19:48.445Z,26.80
2022-10-05T14:22:22.286Z,26.80
2022-10-05T14:24:52.151Z,26.60
2022-10-05T14:27:20.864Z,26.50
2022-10-05T14:29:54.053Z,26.50
2022-10-05T14:32:23.230Z,26.40
2022-10-05T14:35:08.705Z,26.50
2022-10-05T14:37:48.883Z,26.80
2022-10-05T14:40:27.389Z,26.40
2022-10-05T14:42:54.430Z,26.30
2022-10-05T14:45:23.532Z,26.20
2022-10-05T14:47:56.123Z,26.10
2022-10-05T14:50:29.659Z,25.90
2022-10-05T14:53:14.343Z,25.80
2022-10-05T14:55:50.235Z,25.70
2022-10-05T14:58:36.142Z,25.50
2022-10-05T15:01:13.614Z,25.30
2022-10-05T15:03:40.557Z,25.10
2022-10-05T15:06:14.747Z,25.10
2022-10-05T15:08:48.119Z,24.70
2022-10-05T15:11:22.951Z,24.60
2022-10-05T15:13:49.641Z,24.40
2022-10-05T15:16:22.816Z,24.20
2022-10-05T15:18:53.728Z,24.00
2022-10-05T15:21:26.383Z,23.90
2022-10-05T15:24:06.323Z,23.90
2022-10-05T15:26:41.925Z,23.70
2022-10-05T15:29:21.791Z,23.60
2022-10-05T15:31:51.418Z,23.50
2022-10-05T15:34:23.621Z,23.40
2022-10-05T15:36:57.172Z,23.20
2022-10-05T15:39:40.302Z,23.00
2022-10-05T15:42:10.982Z,22.90
2022-10-05T15:44:52.058Z,22.60
2022-10-05T15:47:35.326Z,22.50
2022-10-05T15:50:20.895Z,22.40
2022-10-05T15:52:53.233Z,22.30
2022-10-05T15:55:19.797Z,22.10
2022-10-05T15:57:53.419Z,22.10
2022-10-05T16:00:21.996Z,22.00
2022-10-05T16:03:00.630Z,21.90
2022-10-05T16:06:04.522Z,21.70
2022-10-05T16:08:49.635Z,21.60
2022-10-05T16:11:36.830Z,21.40
2022-10-05T16:14:18.800Z,21.30
2022-10-05T16:17:02.241Z,21.20
2022-10-05T16:19:52.110Z,21.10
2022-10-05T16:22:27.663Z,21.00
2022-10-05T16:25:02.696Z,20.80
2022-10-05T16:27:41.666Z,20.70
2022-10-05T16:30:16.612Z,20.60
2022-10-05T16:32:50.021Z,20.50
2022-10-05T16:35:23.720Z,20.30
2022-10-05T16:38:15.496Z,20.20
2022-10-05T16:41:01.071Z,20.10
2022-10-05T16:43:37.187Z,20.00
2022-10-05T16:46:22.019Z,19.90
2022-10-05T16:49:07.407Z,19.90
2022-10-05T16:51:33.899Z,19.80
2022-10-05T16:54:01.050Z,19.70
2022-10-05T16:56:30.658Z,19.60
2022-10-05T16:59:16.525Z,19.50
2022-10-05T17:01:43.609Z,19.40
2022-10-05T17:04:18.583Z,19.30
2022-10-05T17:06:51.002Z,19.30
2022-10-05T17:09:17.611Z,19.10
2022-10-05T17:11:47.344Z,19.00
2022-10-05T17:14:15.269Z,18.90
2022-10-05T17:16:53.965Z,18.80
2022-10-05T17:19:39.476Z,18.70
2022-10-05T17:22:12.326Z,18.60
2022-10-05T17:24:57.590Z,18.50
2022-10-05T17:27:33.509Z,18.40
2022-10-05T17:30:18.942Z,18.40
2022-10-05T17:32:55.201Z,18.20
2022-10-05T17:35:40.892Z,18.20
2022-10-05T17:38:20.183Z,18.10
2022-10-05T17:41:06.265Z,18.00
2022-10-05T17:43:33.495Z,17.90
2022-10-05T17:46:00.684Z,17.80
2022-10-05T17:48:37.921Z,17.70
2022-10-05T17:51:46.719Z,17.70
2022-10-05T17:54:41.906Z,17.60
2022-10-05T17:57:08.439Z,17.50
2022-10-05T17:59:47.005Z,17.50
2022-10-05T18:02:19.687Z,17.40
2022-10-05T18:04:49.920Z,17.30
2022-10-05T18:07:23.751Z,17.30
2022-10-05T18:09:53.566Z,17.20
2022-10-05T18:12:37.541Z,17.10
2022-10-05T18:15:06.927Z,17.10
2022-10-05T18:17:51.369Z,17.00
2022-10-05T18:20:23.768Z,17.00
2022-10-05T18:22:52.907Z,16.90
2022-10-05T18:25:20.057Z,16.80
2022-10-05T18:28:00.768Z,16.80
2022-10-05T18:30:31.135Z,16.70
2022-10-05T18:32:57.656Z,16.70
2022-10-05T18:35:24.205Z,16.60
2022-10-05T18:37:53.574Z,16.60
2022-10-05T18:40:23.225Z,16.60
2022-10-05T18:42:49.803Z,16.50
2022-10-05T18:45:22.774Z,16.50
2022-10-05T18:47:55.450Z,16.50
2022-10-05T18:50:26.600Z,16.40
2022-10-05T18:53:07.414Z,16.30
2022-10-05T18:55:52.796Z,16.30
2022-10-05T18:58:26.494Z,16.20
2022-10-05T19:01:12.323Z,16.20
2022-10-05T19:03:57.011Z,16.10
2022-10-05T19:06:24.283Z,16.10
2022-10-05T19:08:58.426Z,16.00
2022-10-05T19:11:35.923Z,16.00
2022-10-05T19:14:02.616Z,16.00
2022-10-05T19:16:29.823Z,15.90
2022-10-05T19:19:09.275Z,15.90
2022-10-05T19:21:48.420Z,15.80
2022-10-05T19:24:37.935Z,15.80
2022-10-05T19:27:07.199Z,15.80
2022-10-05T19:29:53.157Z,15.80
2022-10-05T19:32:25.538Z,15.70
2022-10-05T19:34:55.175Z,15.60
2022-10-05T19:37:30.879Z,15.60
2022-10-05T19:40:04.632Z,15.60
2022-10-05T19:42:45.147Z,15.50
2022-10-05T19:45:18.674Z,15.50
2022-10-05T19:47:54.538Z,15.50
2022-10-05T19:50:21.106Z,15.50
2022-10-05T19:52:50.405Z,15.40
2022-10-05T19:55:19.844Z,15.40
2022-10-05T19:57:50.914Z,15.30
2022-10-05T20:00:26.602Z,15.20
2022-10-05T20:03:08.524Z,15.20
2022-10-05T20:05:35.095Z,15.10
2022-10-05T20:08:01.626Z,15.00
2022-10-05T20:10:29.294Z,15.00
2022-10-05T20:12:57.522Z,14.80
2022-10-05T20:16:05.422Z,14.70
2022-10-05T20:18:50.468Z,14.60
2022-10-05T20:21:37.102Z,14.50
2022-10-05T20:24:12.441Z,14.50
2022-10-05T20:27:01.996Z,14.40
2022-10-05T20:29:29.475Z,14.30
2022-10-05T20:31:56.372Z,14.30
2022-10-05T20:34:23.305Z,14.20
2022-10-05T20:36:50.272Z,14.20
2022-10-05T20:39:17.187Z,14.00
2022-10-05T20:41:44.558Z,14.00
2022-10-05T20:44:12.279Z,14.00
2022-10-05T20:46:40.711Z,13.90
2022-10-05T20:49:10.363Z,13.70
2022-10-05T20:51:40.136Z,13.60
2022-10-05T20:54:07.650Z,13.70
2022-10-05T20:56:34.500Z,13.60
2022-10-05T20:59:01.038Z,13.50
2022-10-05T21:01:28.800Z,13.40
2022-10-05T21:03:55.835Z,13.40
2022-10-05T21:06:22.711Z,13.40
2022-10-05T21:08:51.281Z,13.20
2022-10-05T21:11:17.861Z,13.20
2022-10-05T21:13:45.178Z,13.20
2022-10-05T21:16:13.369Z,13.10
2022-10-05T21:18:40.101Z,13.10
2022-10-05T21:21:06.894Z,13.00
2022-10-05T21:23:33.584Z,13.00
2022-10-05T21:26:00.714Z,12.90
2022-10-05T21:28:28.484Z,12.80
2022-10-05T21:30:55.398Z,12.80
2022-10-05T21:33:22.104Z,12.80
2022-10-05T21:35:48.689Z,12.70
2022-10-05T21:38:15.238Z,12.60
2022-10-05T21:40:43.305Z,12.60
2022-10-05T21:43:09.889Z,12.50
2022-10-05T21:45:36.897Z,12.50
2022-10-05T21:48:04.637Z,12.50
2022-10-05T21:50:31.933Z,12.40
2022-10-05T21:52:59.683Z,12.40
2022-10-05T21:55:26.235Z,12.30
2022-10-05T21:57:52.778Z,12.30
2022-10-05T22:00:19.581Z,12.30
2022-10-05T22:02:46.154Z,12.20
2022-10-05T22:05:12.707Z,12.20
2022-10-05T22:07:39.344Z,12.20
2022-10-05T22:10:06.230Z,12.10
2022-10-05T22:12:32.894Z,12.10
2022-10-05T22:14:59.440Z,12.00
2022-10-05T22:17:28.008Z,12.00
2022-10-05T22:19:55.417Z,12.00
2022-10-05T22:22:21.951Z,11.90
2022-10-05T22:24:48.462Z,12.00
2022-10-05T22:27:15.131Z,11.90
2022-10-05T22:29:41.710Z,11.90
2022-10-05T22:32:08.465Z,11.90
2022-10-05T22:34:35.363Z,11.80
2022-10-05T22:37:02.868Z,11.80
2022-10-05T22:39:29.386Z,11.80
2022-10-05T22:41:56.234Z,11.80
2022-10-05T22:44:22.866Z,11.80
2022-10-05T22:46:49.564Z,11.70
2022-10-05T22:49:16.144Z,11.70
2022-10-05T22:51:42.663Z,11.70
2022-10-05T22:54:09.255Z,11.40
2022-10-05T22:56:35.815Z,11.70
2022-10-05T22:59:02.360Z,11.70
2022-10-05T23:01:28.970Z,11.70
2022-10-05T23:03:57.122Z,11.70
2022-10-05T23:06:26.501Z,11.70
2022-10-05T23:08:53.872Z,11.70
2022-10-05T23:11:23.499Z,11.80
2022-10-05T23:13:52.071Z,11.80
2022-10-05T23:16:20.168Z,11.90
2022-10-05T23:18:48.433Z,11.90
2022-10-05T23:21:15.148Z,11.90
2022-10-05T23:23:43.255Z,11.90
2022-10-05T23:26:11.144Z,12.00
2022-10-05T23:28:38.936Z,12.00
2022-10-05T23:31:06.818Z,12.00
2022-10-05T23:33:34.029Z,12.00
2022-10-05T23:36:01.635Z,12.00
2022-10-05T23:38:28.555Z,12.10
2022-10-05T23:40:56.153Z,12.10
2022-10-05T23:43:22.732Z,12.10
2022-10-05T23:45:49.290Z,12.10
2022-10-05T23:48:15.992Z,12.10
2022-10-05T23:50:45.202Z,12.10
2022-10-05T23:53:11.737Z,12.20
2022-10-05T23:55:38.473Z,12.20
2022-10-05T23:58:05.092Z,12.20
